createdAt,value
2018-02-17T00:01:53.251Z,11.37
2018-02-17T00:04:21.571Z,10.47
2018-02-17T00:06:49.921Z,10.43
2018-02-17T00:09:18.244Z,11.13
2018-02-17T00:11:46.579Z,11.10
2018-02-17T00:14:14.895Z,11.30
2018-02-17T00:16:43.240Z,10.60
2018-02-17T00:19:11.560Z,10.70
2018-02-17T00:21:39.899Z,10.37
2018-02-17T00:24:08.216Z,11.02
2018-02-17T00:26:36.560Z,12.12
2018-02-17T00:29:04.888Z,10.58
2018-02-17T00:31:33.227Z,10.45
2018-02-17T00:34:01.543Z,9.82
2018-02-17T00:36:29.887Z,10.33
2018-02-17T00:38:58.213Z,10.83
2018-02-17T00:41:26.551Z,9.78
2018-02-17T00:43:54.875Z,9.98
2018-02-17T00:46:23.221Z,8.17
2018-02-17T00:48:51.577Z,9.75
2018-02-17T00:51:19.913Z,9.28
2018-02-17T00:53:48.238Z,10.00
2018-02-17T00:56:16.576Z,9.42
2018-02-17T00:58:44.888Z,9.27
2018-02-17T01:01:13.216Z,9.50
2018-02-17T01:03:41.554Z,10.48
2018-02-17T01:06:09.872Z,9.92
2018-02-17T01:08:38.216Z,8.90
2018-02-17T01:11:06.524Z,8.90
2018-02-17T01:13:34.867Z,9.32
2018-02-17T01:16:03.180Z,9.02
2018-02-17T01:18:31.519Z,8.55
2018-02-17T01:20:59.840Z,9.75
2018-02-17T01:23:28.173Z,8.62
2018-02-17T01:25:56.493Z,8.12
2018-02-17T01:28:24.828Z,8.97
2018-02-17T01:30:53.244Z,7.37
2018-02-17T01:33:21.578Z,7.07
2018-02-17T01:35:49.896Z,7.30
2018-02-17T01:38:18.227Z,7.00
2018-02-17T01:40:46.539Z,8.63
2018-02-17T01:43:14.877Z,6.32
2018-02-17T01:45:43.204Z,7.53
2018-02-17T01:48:11.545Z,8.50
2018-02-17T01:50:39.865Z,9.85
2018-02-17T01:53:10.692Z,8.83
2018-02-17T01:55:39.014Z,8.05
2018-02-17T01:58:07.351Z,7.93
2018-02-17T02:00:35.673Z,7.37
2018-02-17T02:03:04.008Z,7.53
2018-02-17T02:05:32.323Z,7.68
2018-02-17T02:08:00.662Z,6.83
2018-02-17T02:10:28.971Z,8.53
2018-02-17T02:12:57.323Z,7.25
2018-02-17T02:15:25.635Z,7.48
2018-02-17T02:17:53.969Z,7.47
2018-02-17T02:20:22.285Z,8.08
2018-02-17T02:22:50.631Z,8.77
2018-02-17T02:25:18.939Z,8.17
2018-02-17T02:27:47.300Z,7.78
2018-02-17T02:30:15.622Z,7.60
2018-02-17T02:32:43.954Z,8.83
2018-02-17T02:35:12.264Z,7.77
2018-02-17T02:37:40.598Z,7.63
2018-02-17T02:40:08.912Z,9.17
2018-02-17T02:42:36.483Z,8.77
2018-02-17T02:45:04.792Z,8.02
2018-02-17T02:47:33.128Z,8.38
2018-02-17T02:50:01.438Z,8.65
2018-02-17T02:52:29.784Z,8.10
2018-02-17T02:54:58.127Z,8.38
2018-02-17T02:57:26.445Z,8.18
2018-02-17T02:59:54.786Z,7.62
2018-02-17T03:02:23.095Z,7.40
2018-02-17T03:04:51.431Z,7.97
2018-02-17T03:07:19.744Z,8.97
2018-02-17T03:09:48.077Z,7.83
2018-02-17T03:12:16.398Z,8.13
2018-02-17T03:14:44.740Z,7.80
2018-02-17T03:17:13.055Z,7.55
2018-02-17T03:19:42.118Z,7.87
2018-02-17T03:22:10.431Z,9.20
2018-02-17T03:24:38.770Z,8.03
2018-02-17T03:27:07.088Z,7.93
2018-02-17T03:29:35.421Z,7.35
2018-02-17T03:32:03.749Z,8.58
2018-02-17T03:34:32.083Z,7.53
2018-02-17T03:37:00.408Z,9.08
2018-02-17T03:39:28.747Z,7.50
2018-02-17T03:41:59.020Z,8.42
2018-02-17T03:44:27.361Z,7.88
2018-02-17T03:46:55.673Z,7.60
2018-02-17T03:49:24.008Z,7.38
2018-02-17T03:51:52.317Z,8.02
2018-02-17T03:54:20.654Z,7.40
2018-02-17T03:56:48.975Z,7.07
2018-02-17T03:59:17.311Z,7.53
2018-02-17T04:01:45.620Z,8.20
2018-02-17T04:04:13.953Z,7.25
2018-02-17T04:06:42.270Z,7.97
2018-02-17T04:09:10.595Z,7.55
2018-02-17T04:11:38.903Z,8.08
2018-02-17T04:14:07.230Z,7.57
2018-02-17T04:16:35.543Z,7.20
2018-02-17T04:19:03.881Z,7.02
2018-02-17T04:21:32.204Z,7.52
2018-02-17T04:24:00.545Z,7.10
2018-02-17T04:26:28.859Z,7.28
2018-02-17T04:28:57.192Z,6.98
2018-02-17T04:31:25.532Z,7.33
2018-02-17T04:33:53.863Z,7.23
2018-02-17T04:36:22.171Z,6.98
2018-02-17T04:38:50.508Z,7.10
2018-02-17T04:41:18.820Z,7.60
2018-02-17T04:44:05.236Z,8.27
2018-02-17T04:46:38.400Z,8.03
2018-02-17T04:49:25.615Z,7.88
2018-02-17T04:51:55.873Z,7.18
2018-02-17T04:54:29.804Z,7.13
2018-02-17T04:56:58.837Z,6.90
2018-02-17T04:59:28.807Z,7.90
2018-02-17T05:01:57.141Z,7.12
2018-02-17T05:04:25.471Z,7.15
2018-02-17T05:06:53.804Z,7.57
2018-02-17T05:09:22.117Z,7.00
2018-02-17T05:11:50.442Z,6.90
2018-02-17T05:14:27.383Z,7.35
2018-02-17T05:17:12.395Z,6.72
2018-02-17T05:19:45.702Z,7.30
2018-02-17T05:22:18.894Z,7.62
2018-02-17T05:24:48.874Z,8.37
2018-02-17T05:27:27.119Z,7.58
2018-02-17T05:29:58.350Z,7.80
2018-02-17T05:32:26.695Z,8.23
2018-02-17T05:34:56.656Z,7.23
2018-02-17T05:37:24.987Z,7.62
2018-02-17T05:39:58.175Z,7.62
2018-02-17T05:42:28.183Z,7.60
2018-02-17T05:44:56.500Z,7.72
2018-02-17T05:47:39.727Z,7.57
2018-02-17T05:50:08.654Z,7.72
2018-02-17T05:52:36.984Z,7.45
2018-02-17T05:55:05.297Z,8.07
2018-02-17T05:57:33.631Z,8.50
2018-02-17T06:00:01.941Z,8.35
2018-02-17T06:02:30.279Z,6.65
2018-02-17T06:04:58.603Z,8.07
2018-02-17T06:07:27.091Z,7.08
2018-02-17T06:09:55.424Z,8.10
2018-02-17T06:12:23.758Z,6.92
2018-02-17T06:14:52.071Z,6.75
2018-02-17T06:17:20.410Z,7.65
2018-02-17T06:19:48.843Z,8.38
2018-02-17T06:22:17.181Z,9.10
2018-02-17T06:24:45.522Z,8.60
2018-02-17T06:27:13.851Z,12.65
2018-02-17T06:29:42.201Z,8.95
2018-02-17T06:32:10.515Z,7.57
2018-02-17T06:34:38.852Z,15.03
2018-02-17T06:37:07.168Z,12.50
2018-02-17T06:39:35.506Z,33.95
2018-02-17T06:42:03.819Z,17.30
2018-02-17T06:44:32.172Z,63.72
2018-02-17T06:47:00.482Z,39.28
2018-02-17T06:49:28.832Z,56.77
2018-02-17T06:51:57.154Z,24.70
2018-02-17T06:54:25.503Z,32.62
2018-02-17T06:56:53.815Z,21.57
2018-02-17T06:59:22.167Z,20.68
2018-02-17T07:01:50.487Z,13.40
2018-02-17T07:04:18.826Z,11.32
2018-02-17T07:06:47.150Z,11.32
2018-02-17T07:09:15.495Z,9.93
2018-02-17T07:11:43.822Z,10.03
2018-02-17T07:14:12.161Z,10.98
2018-02-17T07:16:40.501Z,11.98
2018-02-17T07:19:08.843Z,11.40
2018-02-17T07:21:37.222Z,13.25
2018-02-17T07:24:05.572Z,12.90
2018-02-17T07:26:33.889Z,16.43
2018-02-17T07:29:02.231Z,17.95
2018-02-17T07:31:30.548Z,13.72
2018-02-17T07:33:58.951Z,10.90
2018-02-17T07:36:27.268Z,7.65
2018-02-17T07:38:55.620Z,9.58
2018-02-17T07:41:23.952Z,7.58
2018-02-17T07:43:52.298Z,9.57
2018-02-17T07:46:20.614Z,9.40
2018-02-17T07:48:48.954Z,8.32
2018-02-17T07:51:17.270Z,9.78
2018-02-17T07:53:45.617Z,13.27
2018-02-17T07:56:13.954Z,13.35
2018-02-17T07:58:42.395Z,14.85
2018-02-17T08:01:10.732Z,15.50
2018-02-17T08:03:39.065Z,12.82
2018-02-17T08:06:07.387Z,14.63
2018-02-17T08:08:35.711Z,13.52
2018-02-17T08:11:04.049Z,14.42
2018-02-17T08:13:32.363Z,13.02
2018-02-17T08:16:00.703Z,14.03
2018-02-17T08:18:29.025Z,21.15
2018-02-17T08:20:57.367Z,23.00
2018-02-17T08:23:25.696Z,22.62
2018-02-17T08:25:54.038Z,17.58
2018-02-17T08:28:22.346Z,17.60
2018-02-17T08:30:50.694Z,17.47
2018-02-17T08:33:19.007Z,13.58
2018-02-17T08:35:47.351Z,13.58
2018-02-17T08:38:15.666Z,14.35
2018-02-17T08:40:44.003Z,13.00
2018-02-17T08:43:12.381Z,12.03
2018-02-17T08:45:40.759Z,10.52
2018-02-17T08:48:09.086Z,11.47
2018-02-17T08:50:37.480Z,10.95
2018-02-17T08:53:05.839Z,11.45
2018-02-17T08:55:34.269Z,12.25
2018-02-17T08:58:02.699Z,10.92
2018-02-17T09:00:31.176Z,10.27
2018-02-17T09:02:59.563Z,11.35
2018-02-17T09:05:28.039Z,11.22
2018-02-17T09:07:56.462Z,13.02
2018-02-17T09:10:36.679Z,12.92
2018-02-17T09:13:05.055Z,13.02
2018-02-17T09:15:33.437Z,11.33
2018-02-17T09:18:01.933Z,13.57
2018-02-17T09:20:30.354Z,12.43
2018-02-17T09:22:58.814Z,12.95
2018-02-17T09:25:27.273Z,12.87
2018-02-17T09:27:55.653Z,12.37
2018-02-17T09:30:24.121Z,15.68
2018-02-17T09:32:52.500Z,15.40
2018-02-17T09:35:20.851Z,15.05
2018-02-17T09:37:49.167Z,14.92
2018-02-17T09:40:17.503Z,14.28
2018-02-17T09:42:45.823Z,13.82
2018-02-17T09:45:14.164Z,13.37
2018-02-17T09:47:42.485Z,12.32
2018-02-17T09:50:10.828Z,10.50
2018-02-17T09:52:39.143Z,11.43
2018-02-17T09:55:07.501Z,11.43
2018-02-17T09:57:35.819Z,11.08
2018-02-17T10:00:04.142Z,10.33
2018-02-17T10:02:32.483Z,11.30
2018-02-17T10:05:00.824Z,12.02
2018-02-17T10:07:29.171Z,11.07
2018-02-17T10:09:57.487Z,12.15
2018-02-17T10:12:25.831Z,11.90
2018-02-17T10:14:54.152Z,13.20
2018-02-17T10:17:22.552Z,12.03
2018-02-17T10:19:50.887Z,12.48
2018-02-17T10:22:19.228Z,12.07
2018-02-17T10:24:47.551Z,13.92
2018-02-17T10:27:15.898Z,14.03
2018-02-17T10:29:44.212Z,25.70
2018-02-17T10:32:12.543Z,38.77
2018-02-17T10:34:40.869Z,26.58
2018-02-17T10:37:09.216Z,24.07
2018-02-17T10:39:37.535Z,24.32
2018-02-17T10:42:05.868Z,22.93
2018-02-17T10:44:34.187Z,23.72
2018-02-17T10:47:02.522Z,31.43
2018-02-17T10:49:30.839Z,29.93
2018-02-17T10:51:59.205Z,13.70
2018-02-17T10:54:27.537Z,52.50
2018-02-17T10:56:55.886Z,17.13
2018-02-17T10:59:24.215Z,35.63
2018-02-17T11:01:52.571Z,49.93
2018-02-17T11:04:20.890Z,20.20
2018-02-17T11:06:49.234Z,14.03
2018-02-17T11:09:17.551Z,15.22
2018-02-17T11:11:45.900Z,12.37
2018-02-17T11:14:14.224Z,11.28
2018-02-17T11:16:42.569Z,10.93
2018-02-17T11:19:10.883Z,13.13
2018-02-17T11:21:39.239Z,35.27
2018-02-17T11:24:07.562Z,10.32
2018-02-17T11:26:35.912Z,22.28
2018-02-17T11:29:04.271Z,57.72
2018-02-17T11:31:32.601Z,27.40
2018-02-17T11:34:00.923Z,28.97
2018-02-17T11:36:29.266Z,14.38
2018-02-17T11:38:57.599Z,55.98
2018-02-17T11:41:25.943Z,25.88
2018-02-17T11:43:54.268Z,18.08
2018-02-17T11:46:22.618Z,18.50
2018-02-17T11:48:50.960Z,18.38
2018-02-17T11:51:19.290Z,16.33
2018-02-17T11:53:47.645Z,13.27
2018-02-17T11:56:15.971Z,11.15
2018-02-17T11:58:44.355Z,15.15
2018-02-17T12:01:12.647Z,13.48
2018-02-17T12:03:40.988Z,10.60
2018-02-17T12:06:09.375Z,12.02
2018-02-17T12:08:37.754Z,16.30
2018-02-17T12:11:06.091Z,11.80
2018-02-17T12:13:34.427Z,12.43
2018-02-17T12:16:02.757Z,26.62
2018-02-17T12:18:31.097Z,16.47
2018-02-17T12:20:59.406Z,11.70
2018-02-17T12:23:27.747Z,11.58
2018-02-17T12:25:56.063Z,10.70
2018-02-17T12:28:24.400Z,13.73
2018-02-17T12:30:52.784Z,11.80
2018-02-17T12:33:21.136Z,10.72
2018-02-17T12:35:49.447Z,14.92
2018-02-17T12:38:17.815Z,13.82
2018-02-17T12:40:46.137Z,9.33
2018-02-17T12:43:14.504Z,9.47
2018-02-17T12:45:42.820Z,9.92
2018-02-17T12:48:11.162Z,10.55
2018-02-17T12:50:39.474Z,9.85
2018-02-17T12:53:07.811Z,9.27
2018-02-17T12:55:36.135Z,10.13
2018-02-17T12:58:04.497Z,10.95
2018-02-17T13:00:32.818Z,10.73
2018-02-17T13:03:01.179Z,10.73
2018-02-17T13:05:29.494Z,10.47
2018-02-17T13:07:57.838Z,10.25
2018-02-17T13:10:26.151Z,11.00
2018-02-17T13:12:54.487Z,10.28
2018-02-17T13:15:22.814Z,14.60
2018-02-17T13:17:51.186Z,39.92
2018-02-17T13:20:19.499Z,10.85
2018-02-17T13:22:47.850Z,11.47
2018-02-17T13:25:16.176Z,11.92
2018-02-17T13:27:44.547Z,10.18
2018-02-17T13:30:12.868Z,11.02
2018-02-17T13:32:41.199Z,16.48
2018-02-17T13:35:09.547Z,11.60
2018-02-17T13:37:37.105Z,11.98
2018-02-17T13:40:05.454Z,10.65
2018-02-17T13:42:33.770Z,11.45
2018-02-17T13:45:02.111Z,9.97
2018-02-17T13:47:30.431Z,10.13
2018-02-17T13:49:58.763Z,9.97
2018-02-17T13:52:27.090Z,10.27
2018-02-17T13:54:55.480Z,10.13
2018-02-17T13:57:23.812Z,10.42
2018-02-17T13:59:52.164Z,11.83
2018-02-17T14:02:20.488Z,11.37
2018-02-17T14:04:48.831Z,13.10
2018-02-17T14:07:17.147Z,11.35
2018-02-17T14:09:45.479Z,12.67
2018-02-17T14:12:13.823Z,12.57
2018-02-17T14:14:42.156Z,10.90
2018-02-17T14:17:10.471Z,11.88
2018-02-17T14:19:38.820Z,12.85
2018-02-17T14:22:07.136Z,12.10
2018-02-17T14:24:35.479Z,12.85
2018-02-17T14:27:03.794Z,12.37
2018-02-17T14:29:32.128Z,13.92
2018-02-17T14:32:00.439Z,14.67
2018-02-17T14:34:28.787Z,13.47
2018-02-17T14:36:57.111Z,14.30
2018-02-17T14:39:25.515Z,15.08
2018-02-17T14:41:53.841Z,16.10
2018-02-17T14:44:22.179Z,15.12
2018-02-17T14:46:50.501Z,17.45
2018-02-17T14:49:18.849Z,17.62
2018-02-17T14:51:47.173Z,18.45
2018-02-17T14:54:15.508Z,18.88
2018-02-17T14:56:43.832Z,17.25
2018-02-17T14:59:12.176Z,16.98
2018-02-17T15:01:40.493Z,16.65
2018-02-17T15:04:08.832Z,18.03
2018-02-17T15:06:37.151Z,17.25
2018-02-17T15:09:05.499Z,19.98
2018-02-17T15:11:33.823Z,19.25
2018-02-17T15:14:02.187Z,22.38
2018-02-17T15:16:30.518Z,24.38
2018-02-17T15:18:58.080Z,55.47
2018-02-17T15:21:26.424Z,37.00
2018-02-17T15:23:54.743Z,53.57
2018-02-17T15:26:23.076Z,53.37
2018-02-17T15:28:51.408Z,22.93
2018-02-17T15:31:19.787Z,20.70
2018-02-17T15:33:48.103Z,23.15
2018-02-17T15:36:16.446Z,21.27
2018-02-17T15:38:44.778Z,18.65
2018-02-17T15:41:13.143Z,20.73
2018-02-17T15:43:41.468Z,21.87
2018-02-17T15:46:11.841Z,19.27
2018-02-17T15:48:40.353Z,20.10
2018-02-17T15:51:08.685Z,20.28
2018-02-17T15:53:37.008Z,24.60
2018-02-17T15:56:05.405Z,24.90
2018-02-17T15:58:33.738Z,18.43
2018-02-17T16:01:02.089Z,36.05
2018-02-17T16:03:29.656Z,27.07
2018-02-17T16:05:57.997Z,19.90
2018-02-17T16:08:26.356Z,22.05
2018-02-17T16:10:54.686Z,23.88
2018-02-17T16:13:23.008Z,31.52
2018-02-17T16:15:51.355Z,28.88
2018-02-17T16:18:19.697Z,32.17
2018-02-17T16:20:48.038Z,29.12
2018-02-17T16:23:16.356Z,23.92
2018-02-17T16:25:44.723Z,25.80
2018-02-17T16:28:13.049Z,22.37
2018-02-17T16:30:41.425Z,28.42
2018-02-17T16:33:09.741Z,25.73
2018-02-17T16:35:38.079Z,20.03
2018-02-17T16:38:06.395Z,20.67
2018-02-17T16:40:34.747Z,16.52
2018-02-17T16:43:03.095Z,17.40
2018-02-17T16:45:31.452Z,17.52
2018-02-17T16:47:59.767Z,17.82
2018-02-17T16:50:28.110Z,17.57
2018-02-17T16:52:56.433Z,22.60
2018-02-17T16:55:24.777Z,20.98
2018-02-17T16:57:53.101Z,20.87
2018-02-17T17:00:21.434Z,19.28
2018-02-17T17:02:49.784Z,21.58
2018-02-17T17:05:18.107Z,20.82
2018-02-17T17:07:46.455Z,20.68
2018-02-17T17:10:14.764Z,22.82
2018-02-17T17:12:43.120Z,19.07
2018-02-17T17:15:11.442Z,19.32
2018-02-17T17:17:39.784Z,18.95
2018-02-17T17:20:08.114Z,22.05
2018-02-17T17:22:36.460Z,18.52
2018-02-17T17:25:04.797Z,25.27
2018-02-17T17:27:33.139Z,20.03
2018-02-17T17:30:01.464Z,20.68
2018-02-17T17:32:29.795Z,19.18
2018-02-17T17:34:58.114Z,27.72
2018-02-17T17:37:26.492Z,25.50
2018-02-17T17:39:54.809Z,60.13
2018-02-17T17:42:23.172Z,55.05
2018-02-17T17:44:51.503Z,123.10
2018-02-17T17:47:19.073Z,33.42
2018-02-17T17:49:47.389Z,50.00
2018-02-17T17:52:15.728Z,40.57
2018-02-17T17:54:44.045Z,32.93
2018-02-17T17:57:12.384Z,23.53
2018-02-17T17:59:40.707Z,24.17
2018-02-17T18:02:09.047Z,28.78
2018-02-17T18:04:37.366Z,26.35
2018-02-17T18:07:06.236Z,25.47
2018-02-17T18:09:34.569Z,28.68
2018-02-17T18:12:02.904Z,40.20
2018-02-17T18:14:31.238Z,37.10
2018-02-17T18:16:59.571Z,33.47
2018-02-17T18:19:27.882Z,26.70
2018-02-17T18:21:56.282Z,24.97
2018-02-17T18:24:24.600Z,33.35
2018-02-17T18:26:52.935Z,33.65
2018-02-17T18:29:21.258Z,28.62
2018-02-17T18:31:49.595Z,24.18
2018-02-17T18:34:17.912Z,25.90
2018-02-17T18:36:46.246Z,28.00
2018-02-17T18:39:14.558Z,26.48
2018-02-17T18:41:42.905Z,30.08
2018-02-17T18:44:11.224Z,28.68
2018-02-17T18:46:39.549Z,27.20
2018-02-17T18:49:07.899Z,32.75
2018-02-17T18:51:36.225Z,28.63
2018-02-17T18:54:04.568Z,26.35
2018-02-17T18:56:32.879Z,22.73
2018-02-17T18:59:01.228Z,21.62
2018-02-17T19:01:29.552Z,22.22
2018-02-17T19:03:57.888Z,21.03
2018-02-17T19:06:26.210Z,22.80
2018-02-17T19:08:54.596Z,24.47
2018-02-17T19:11:22.921Z,23.78
2018-02-17T19:13:51.257Z,28.55
2018-02-17T19:16:19.584Z,26.47
2018-02-17T19:18:47.927Z,30.93
2018-02-17T19:21:16.247Z,28.52
2018-02-17T19:23:44.645Z,28.47
2018-02-17T19:26:12.968Z,29.62
2018-02-17T19:28:41.303Z,29.20
2018-02-17T19:31:09.638Z,28.33
2018-02-17T19:33:37.977Z,28.37
2018-02-17T19:36:06.299Z,29.55
2018-02-17T19:38:34.634Z,27.68
2018-02-17T19:41:02.948Z,28.28
2018-02-17T19:43:31.281Z,25.17
2018-02-17T19:45:59.596Z,24.17
2018-02-17T19:48:27.935Z,23.28
2018-02-17T19:50:56.259Z,24.32
2018-02-17T19:53:24.599Z,25.50
2018-02-17T19:55:52.938Z,25.40
2018-02-17T19:58:21.464Z,28.17
2018-02-17T20:00:49.789Z,22.98
2018-02-17T20:03:18.158Z,23.58
2018-02-17T20:05:46.538Z,24.33
2018-02-17T20:08:14.894Z,26.63
2018-02-17T20:10:43.218Z,25.77
2018-02-17T20:13:10.796Z,23.43
2018-02-17T20:15:39.141Z,22.47
2018-02-17T20:18:07.519Z,23.53
2018-02-17T20:20:35.852Z,21.68
2018-02-17T20:23:04.283Z,23.50
2018-02-17T20:25:32.598Z,21.67
2018-02-17T20:28:00.934Z,23.37
2018-02-17T20:30:29.285Z,19.67
2018-02-17T20:32:57.604Z,20.95
2018-02-17T20:35:25.944Z,21.63
2018-02-17T20:37:54.268Z,19.23
2018-02-17T20:40:22.607Z,20.98
2018-02-17T20:42:50.928Z,20.48
2018-02-17T20:45:19.366Z,19.88
2018-02-17T20:47:47.731Z,22.97
2018-02-17T20:50:16.079Z,22.87
2018-02-17T20:52:44.391Z,23.87
2018-02-17T20:55:12.769Z,22.75
2018-02-17T20:57:41.082Z,23.63
2018-02-17T21:00:09.422Z,24.77
2018-02-17T21:02:37.806Z,27.63
2018-02-17T21:05:06.163Z,24.38
2018-02-17T21:07:34.479Z,23.13
2018-02-17T21:10:02.839Z,22.55
2018-02-17T21:12:31.199Z,24.73
2018-02-17T21:14:59.542Z,31.35
2018-02-17T21:17:27.875Z,29.93
2018-02-17T21:19:56.299Z,23.28
2018-02-17T21:22:24.627Z,22.95
2018-02-17T21:24:52.968Z,25.67
2018-02-17T21:27:21.296Z,25.97
2018-02-17T21:29:49.640Z,24.88
2018-02-17T21:32:17.964Z,21.22
2018-02-17T21:34:46.303Z,20.13
2018-02-17T21:37:14.621Z,20.63
2018-02-17T21:39:42.965Z,20.85
2018-02-17T21:42:11.292Z,21.55
2018-02-17T21:44:39.687Z,25.33
2018-02-17T21:47:08.003Z,26.18
2018-02-17T21:49:36.359Z,24.90
2018-02-17T21:52:04.680Z,23.72
2018-02-17T21:54:33.028Z,22.60
2018-02-17T21:57:01.360Z,21.35
2018-02-17T21:59:29.702Z,24.55
2018-02-17T22:01:58.344Z,22.15
2018-02-17T22:04:26.688Z,20.13
2018-02-17T22:06:55.011Z,20.17
2018-02-17T22:09:23.360Z,22.10
2018-02-17T22:11:51.688Z,22.40
2018-02-17T22:14:20.029Z,21.78
2018-02-17T22:16:48.352Z,22.88
2018-02-17T22:19:16.710Z,22.90
2018-02-17T22:21:45.020Z,22.13
2018-02-17T22:24:13.335Z,21.82
2018-02-17T22:26:41.675Z,22.78
2018-02-17T22:29:09.992Z,22.65
2018-02-17T22:31:38.327Z,22.60
2018-02-17T22:34:06.643Z,20.70
2018-02-17T22:36:34.984Z,21.48
2018-02-17T22:39:03.298Z,21.57
2018-02-17T22:41:31.636Z,22.50
2018-02-17T22:43:59.955Z,23.40
2018-02-17T22:46:28.296Z,22.67
2018-02-17T22:48:56.621Z,21.82
2018-02-17T22:51:24.972Z,21.75
2018-02-17T22:53:54.223Z,23.65
2018-02-17T22:56:22.567Z,21.90
2018-02-17T22:58:50.887Z,21.78
2018-02-17T23:01:19.264Z,20.23
2018-02-17T23:03:47.617Z,20.35
2018-02-17T23:06:15.195Z,21.72
2018-02-17T23:08:43.549Z,20.48
2018-02-17T23:11:11.895Z,19.90
2018-02-17T23:13:40.207Z,19.18
2018-02-17T23:16:08.546Z,19.28
2018-02-17T23:18:36.864Z,19.63
2018-02-17T23:21:05.207Z,18.78
2018-02-17T23:23:33.525Z,18.03
2018-02-17T23:26:01.871Z,18.42
2018-02-17T23:28:30.203Z,18.10
2018-02-17T23:30:58.547Z,17.88
2018-02-17T23:33:26.876Z,18.37
2018-02-17T23:35:55.216Z,17.92
2018-02-17T23:38:23.532Z,19.43
2018-02-17T23:40:51.873Z,18.80
2018-02-17T23:43:20.192Z,17.88
2018-02-17T23:45:47.771Z,16.82
2018-02-17T23:48:16.091Z,16.87
2018-02-17T23:50:44.432Z,17.83
2018-02-17T23:53:12.760Z,17.43
2018-02-17T23:55:41.100Z,15.38
2018-02-17T23:58:09.416Z,17.47
